createdAt,value
2022-12-31T00:02:04.900Z,90.80
2022-12-31T00:08:07.013Z,84.63
2022-12-31T00:14:09.095Z,77.60
2022-12-31T00:20:11.732Z,82.95
2022-12-31T00:32:17.301Z,73.03
2022-12-31T00:38:19.353Z,82.18
2022-12-31T00:44:21.520Z,95.17
2022-12-31T00:50:23.773Z,84.15
2022-12-31T00:56:28.515Z,78.20
2022-12-31T01:02:31.042Z,90.82
2022-12-31T01:08:33.551Z,109.82
2022-12-31T01:14:35.722Z,82.70
2022-12-31T01:20:40.240Z,95.93
2022-12-31T01:26:42.707Z,84.05
2022-12-31T01:32:44.992Z,87.68
2022-12-31T01:38:47.303Z,88.32
2022-12-31T01:44:55.492Z,90.63
2022-12-31T01:50:57.730Z,100.60
2022-12-31T01:56:59.857Z,98.50
2022-12-31T02:03:03.523Z,94.97
2022-12-31T02:09:05.819Z,99.72
2022-12-31T02:15:08.538Z,93.63
2022-12-31T02:28:00.728Z,111.25
2022-12-31T02:34:20.087Z,94.97
2022-12-31T02:40:23.605Z,96.88
2022-12-31T02:46:42.434Z,103.70
2022-12-31T02:52:56.445Z,100.25
2022-12-31T02:59:21.693Z,89.78
2022-12-31T03:05:28.519Z,90.85
2022-12-31T03:11:59.777Z,102.82
2022-12-31T03:18:19.233Z,91.35
2022-12-31T03:24:42.040Z,94.40
2022-12-31T03:30:47.246Z,85.93
2022-12-31T03:36:49.280Z,98.25
2022-12-31T03:42:51.366Z,67.90
2022-12-31T03:48:53.534Z,103.03
2022-12-31T03:54:55.836Z,98.35
2022-12-31T04:00:58.230Z,87.53
2022-12-31T04:07:00.520Z,97.78
2022-12-31T04:13:04.942Z,97.00
2022-12-31T04:19:08.061Z,101.75
2022-12-31T04:25:11.731Z,99.22
2022-12-31T04:31:13.800Z,93.53
2022-12-31T04:37:15.982Z,96.10
2022-12-31T04:43:18.051Z,91.95
2022-12-31T04:49:20.558Z,100.35
2022-12-31T04:55:23.028Z,99.93
2022-12-31T05:01:25.698Z,106.30
2022-12-31T05:07:28.090Z,101.82
2022-12-31T05:13:33.299Z,98.80
2022-12-31T05:19:35.947Z,99.28
2022-12-31T05:25:38.212Z,104.30
2022-12-31T05:31:40.258Z,101.25
2022-12-31T05:37:42.292Z,102.43
2022-12-31T05:43:44.491Z,97.60
2022-12-31T05:49:46.528Z,103.82
2022-12-31T05:55:49.092Z,95.47
2022-12-31T06:01:51.217Z,105.25
2022-12-31T06:07:54.598Z,107.53
2022-12-31T06:13:56.678Z,105.20
2022-12-31T06:19:59.995Z,102.50
2022-12-31T06:26:03.963Z,106.35
2022-12-31T06:32:06.505Z,108.85
2022-12-31T06:38:11.616Z,102.03
2022-12-31T06:44:15.080Z,102.97
2022-12-31T06:50:17.286Z,107.97
2022-12-31T06:56:33.183Z,116.20
2022-12-31T07:03:09.828Z,126.40
2022-12-31T07:09:24.557Z,109.53
2022-12-31T07:15:42.196Z,109.93
2022-12-31T07:21:45.098Z,103.55
2022-12-31T07:28:11.331Z,111.05
2022-12-31T07:34:51.593Z,96.53
2022-12-31T07:41:12.015Z,97.65
2022-12-31T07:47:25.630Z,96.45
2022-12-31T07:53:28.016Z,95.43
2022-12-31T07:59:53.337Z,99.45
2022-12-31T08:06:13.156Z,101.65
2022-12-31T08:12:16.174Z,88.95
2022-12-31T08:18:18.643Z,104.93
2022-12-31T08:24:30.785Z,84.82
2022-12-31T08:30:56.417Z,78.75
2022-12-31T08:37:13.808Z,80.20
2022-12-31T08:43:31.519Z,69.80
2022-12-31T08:49:35.551Z,74.38
2022-12-31T08:55:38.059Z,84.15
2022-12-31T09:02:03.172Z,83.28
2022-12-31T09:08:39.069Z,69.35
2022-12-31T09:15:19.312Z,72.30
2022-12-31T09:21:21.615Z,74.35
2022-12-31T09:27:40.921Z,69.22
2022-12-31T09:34:28.842Z,67.47
2022-12-31T09:41:01.750Z,68.32
2022-12-31T09:47:49.245Z,69.80
2022-12-31T09:54:20.399Z,76.40
2022-12-31T10:00:43.444Z,85.60
2022-12-31T10:07:02.644Z,89.05
2022-12-31T10:13:33.296Z,68.68
2022-12-31T10:19:41.615Z,60.53
2022-12-31T10:25:59.114Z,65.97
2022-12-31T10:32:18.699Z,67.40
2022-12-31T10:38:29.568Z,72.15
2022-12-31T10:44:37.967Z,65.85
2022-12-31T10:50:45.642Z,64.00
2022-12-31T10:57:11.869Z,61.22
2022-12-31T11:03:25.195Z,75.05
2022-12-31T11:09:49.019Z,72.28
2022-12-31T11:16:10.446Z,57.33
2022-12-31T11:22:40.796Z,68.35
2022-12-31T11:29:01.709Z,58.75
2022-12-31T11:35:27.014Z,69.93
2022-12-31T11:41:49.041Z,67.15
2022-12-31T11:48:32.675Z,66.27
2022-12-31T11:54:51.880Z,62.00
2022-12-31T12:01:20.138Z,56.35
2022-12-31T12:07:24.308Z,60.13
2022-12-31T12:13:28.088Z,48.60
2022-12-31T12:19:33.272Z,43.35
2022-12-31T12:25:44.131Z,50.50
2022-12-31T12:32:15.909Z,50.75
2022-12-31T12:38:23.373Z,51.20
2022-12-31T12:44:25.597Z,56.72
2022-12-31T12:50:38.668Z,66.30
2022-12-31T13:03:16.398Z,48.73
2022-12-31T13:09:29.950Z,56.28
2022-12-31T13:15:39.917Z,55.78
2022-12-31T13:21:42.848Z,74.35
2022-12-31T13:27:48.469Z,60.65
2022-12-31T13:33:59.626Z,61.10
2022-12-31T13:40:21.334Z,69.97
2022-12-31T13:46:46.504Z,61.85
2022-12-31T13:53:12.886Z,63.30
2022-12-31T13:59:22.629Z,66.38
2022-12-31T14:05:40.680Z,56.53
2022-12-31T14:12:23.447Z,64.78
2022-12-31T14:18:55.390Z,64.70
2022-12-31T14:24:59.715Z,74.57
2022-12-31T14:31:45.254Z,70.70
2022-12-31T14:37:57.218Z,78.93
2022-12-31T14:44:27.262Z,82.97
2022-12-31T14:50:31.423Z,79.95
2022-12-31T14:56:45.877Z,87.70
2022-12-31T15:02:53.629Z,100.07
2022-12-31T15:09:08.582Z,100.18
2022-12-31T15:15:38.521Z,108.10
2022-12-31T15:21:52.798Z,113.03
2022-12-31T15:27:57.164Z,103.63
2022-12-31T15:34:07.395Z,113.57
2022-12-31T15:40:15.772Z,120.65
2022-12-31T15:46:22.700Z,142.70
2022-12-31T15:53:07.929Z,150.80
2022-12-31T15:59:14.237Z,114.30
2022-12-31T16:05:27.483Z,120.25
2022-12-31T16:11:30.747Z,119.10
2022-12-31T16:17:38.825Z,125.95
2022-12-31T16:23:50.129Z,131.27
2022-12-31T16:30:02.190Z,124.13
2022-12-31T16:36:05.571Z,122.03
2022-12-31T16:42:14.501Z,152.68
2022-12-31T16:48:19.318Z,119.50
2022-12-31T16:54:29.273Z,121.43
2022-12-31T17:00:32.647Z,121.72
2022-12-31T17:06:34.727Z,125.93
2022-12-31T17:13:17.451Z,128.20
2022-12-31T17:19:05.651Z,105.20
2022-12-31T17:25:27.311Z,93.15
2022-12-31T17:31:34.151Z,97.13
2022-12-31T17:37:36.602Z,114.30
2022-12-31T17:43:40.039Z,106.60
2022-12-31T17:49:45.940Z,130.27
2022-12-31T17:55:51.292Z,127.57
2022-12-31T18:01:53.518Z,123.07
2022-12-31T18:07:56.063Z,127.63
2022-12-31T18:13:58.357Z,116.25
2022-12-31T18:20:05.209Z,116.55
2022-12-31T18:26:13.092Z,130.90
2022-12-31T18:32:30.026Z,120.43
2022-12-31T18:38:32.407Z,130.50
2022-12-31T18:44:34.351Z,123.30
2022-12-31T18:50:36.832Z,146.70
2022-12-31T18:56:44.803Z,160.15
2022-12-31T19:02:49.269Z,182.60
2022-12-31T19:08:51.877Z,114.20
2022-12-31T19:14:54.048Z,181.57
2022-12-31T19:20:56.242Z,131.75
2022-12-31T19:26:58.418Z,144.10
2022-12-31T19:33:01.073Z,129.97
2022-12-31T19:39:04.599Z,115.22
2022-12-31T19:45:07.668Z,119.60
2022-12-31T19:51:17.872Z,120.15
2022-12-31T19:57:19.863Z,99.82
2022-12-31T20:03:22.040Z,117.23
2022-12-31T20:09:24.251Z,124.30
2022-12-31T20:15:26.451Z,144.97
2022-12-31T20:21:29.169Z,122.00
2022-12-31T20:33:33.994Z,104.35
2022-12-31T20:45:41.184Z,84.25
2022-12-31T20:51:48.793Z,96.93
2022-12-31T20:57:53.933Z,92.55
2022-12-31T21:04:05.442Z,74.37
2022-12-31T21:10:11.760Z,98.97
2022-12-31T21:16:13.916Z,102.55
2022-12-31T21:22:16.081Z,91.40
2022-12-31T21:28:18.269Z,91.03
2022-12-31T21:34:20.289Z,86.43
2022-12-31T21:40:22.402Z,96.93
2022-12-31T21:46:25.991Z,104.90
2022-12-31T21:52:28.667Z,97.20
2022-12-31T21:58:30.928Z,100.97
2022-12-31T22:05:01.552Z,314.85
2022-12-31T22:10:55.358Z,236.60
2022-12-31T22:16:57.355Z,262.55
2022-12-31T22:22:59.444Z,213.30
2022-12-31T22:29:01.556Z,323.50
2022-12-31T22:35:03.778Z,445.13
2022-12-31T22:41:17.819Z,479.45
2022-12-31T22:47:19.931Z,506.48
2022-12-31T22:53:21.997Z,463.50
2022-12-31T22:59:24.728Z,398.33
2022-12-31T23:05:26.802Z,300.55
2022-12-31T23:11:29.488Z,242.43
2022-12-31T23:17:50.291Z,266.55
2022-12-31T23:23:53.925Z,239.10
2022-12-31T23:29:56.025Z,226.35
2022-12-31T23:36:05.672Z,221.57
2022-12-31T23:42:08.175Z,173.40
2022-12-31T23:48:10.301Z,153.18
2022-12-31T23:54:13.123Z,129.67
